sensor_id;sensor_type;location;lat;lon;timestamp;pressure;altitude;pressure_sealevel;temperature;humidity
4044;BME280;2036;51.578;7.108;2022-10-10T00:01:29;100814.50;;;8.00;100.00
4044;BME280;2036;51.578;7.108;2022-10-10T00:03:57;100798.28;;;7.95;100.00
4044;BME280;2036;51.578;7.108;2022-10-10T00:06:24;100810.03;;;7.88;100.00
4044;BME280;2036;51.578;7.108;2022-10-10T00:08:50;100801.53;;;7.85;100.00
4044;BME280;2036;51.578;7.108;2022-10-10T00:11:18;100808.81;;;7.80;100.00
4044;BME280;2036;51.578;7.108;2022-10-10T00:13:45;100810.97;;;7.73;100.00
4044;BME280;2036;51.578;7.108;2022-10-10T00:16:12;100814.59;;;7.71;100.00
4044;BME280;2036;51.578;7.108;2022-10-10T00:18:38;100802.78;;;7.65;100.00
4044;BME280;2036;51.578;7.108;2022-10-10T00:21:05;100801.53;;;7.56;100.00
4044;BME280;2036;51.578;7.108;2022-10-10T00:23:31;100802.56;;;7.54;100.00
4044;BME280;2036;51.578;7.108;2022-10-10T00:25:58;100806.41;;;7.48;100.00
4044;BME280;2036;51.578;7.108;2022-10-10T00:28:24;100803.13;;;7.45;100.00
4044;BME280;2036;51.578;7.108;2022-10-10T00:30:50;100810.31;;;7.41;100.00
4044;BME280;2036;51.578;7.108;2022-10-10T00:33:16;100804.41;;;7.38;100.00
4044;BME280;2036;51.578;7.108;2022-10-10T00:35:41;100809.72;;;7.36;100.00
4044;BME280;2036;51.578;7.108;2022-10-10T00:38:07;100799.56;;;7.32;100.00
4044;BME280;2036;51.578;7.108;2022-10-10T00:40:34;100803.38;;;7.26;100.00
4044;BME280;2036;51.578;7.108;2022-10-10T00:43:00;100796.56;;;7.24;100.00
4044;BME280;2036;51.578;7.108;2022-10-10T00:48:09;100801.97;;;7.21;100.00
4044;BME280;2036;51.578;7.108;2022-10-10T00:51:10;100800.47;;;7.17;99.68
4044;BME280;2036;51.578;7.108;2022-10-10T00:53:46;100796.47;;;7.11;100.00
4044;BME280;2036;51.578;7.108;2022-10-10T00:56:16;100795.78;;;7.08;98.44
4044;BME280;2036;51.578;7.108;2022-10-10T00:58:47;100789.09;;;7.04;100.00
4044;BME280;2036;51.578;7.108;2022-10-10T01:01:15;100786.66;;;7.01;100.00
4044;BME280;2036;51.578;7.108;2022-10-10T01:03:41;100786.81;;;6.98;100.00
4044;BME280;2036;51.578;7.108;2022-10-10T01:06:07;100784.47;;;6.93;100.00
4044;BME280;2036;51.578;7.108;2022-10-10T01:08:33;100783.72;;;6.91;96.97
4044;BME280;2036;51.578;7.108;2022-10-10T01:23:13;100776.78;;;6.76;100.00
4044;BME280;2036;51.578;7.108;2022-10-10T01:26:22;100776.13;;;6.72;93.33
4044;BME280;2036;51.578;7.108;2022-10-10T01:29:14;100766.81;;;6.68;100.00
4044;BME280;2036;51.578;7.108;2022-10-10T01:31:45;100761.03;;;6.63;100.00
4044;BME280;2036;51.578;7.108;2022-10-10T01:37:21;100751.78;;;6.58;99.76
4044;BME280;2036;51.578;7.108;2022-10-10T01:42:53;100759.69;;;6.56;98.06
4044;BME280;2036;51.578;7.108;2022-10-10T01:47:10;100758.75;;;6.57;93.60
4044;BME280;2036;51.578;7.108;2022-10-10T01:49:36;100753.91;;;6.51;100.00
4044;BME280;2036;51.578;7.108;2022-10-10T01:52:17;100742.13;;;6.44;100.00
4044;BME280;2036;51.578;7.108;2022-10-10T02:03:28;100742.31;;;6.41;100.00
4044;BME280;2036;51.578;7.108;2022-10-10T02:06:49;100731.63;;;6.46;100.00
4044;BME280;2036;51.578;7.108;2022-10-10T02:09:20;100745.75;;;6.42;100.00
4044;BME280;2036;51.578;7.108;2022-10-10T02:11:49;100738.19;;;6.37;100.00
4044;BME280;2036;51.578;7.108;2022-10-10T02:14:21;100738.09;;;6.39;100.00
4044;BME280;2036;51.578;7.108;2022-10-10T02:16:50;100727.94;;;6.34;100.00
4044;BME280;2036;51.578;7.108;2022-10-10T02:19:21;100732.31;;;6.34;97.56
4044;BME280;2036;51.578;7.108;2022-10-10T02:21:50;100726.53;;;6.29;97.73
4044;BME280;2036;51.578;7.108;2022-10-10T02:24:19;100727.44;;;6.28;93.79
4044;BME280;2036;51.578;7.108;2022-10-10T02:26:58;100732.75;;;6.26;95.02
4044;BME280;2036;51.578;7.108;2022-10-10T02:29:32;100733.03;;;6.22;96.88
4044;BME280;2036;51.578;7.108;2022-10-10T02:32:11;100717.19;;;6.25;97.20
4044;BME280;2036;51.578;7.108;2022-10-10T02:37:32;100719.06;;;6.22;93.68
4044;BME280;2036;51.578;7.108;2022-10-10T02:40:01;100718.31;;;6.20;97.72
4044;BME280;2036;51.578;7.108;2022-10-10T02:42:28;100711.22;;;6.22;91.36
4044;BME280;2036;51.578;7.108;2022-10-10T02:44:55;100711.41;;;6.19;96.86
4044;BME280;2036;51.578;7.108;2022-10-10T02:47:21;100708.63;;;6.22;100.00
4044;BME280;2036;51.578;7.108;2022-10-10T02:49:47;100705.19;;;6.22;100.00
4044;BME280;2036;51.578;7.108;2022-10-10T02:57:07;100705.56;;;6.46;100.00
4044;BME280;2036;51.578;7.108;2022-10-10T02:59:33;100699.69;;;6.42;100.00
4044;BME280;2036;51.578;7.108;2022-10-10T03:01:59;100699.69;;;6.42;100.00
4044;BME280;2036;51.578;7.108;2022-10-10T03:04:25;100699.53;;;6.45;100.00
4044;BME280;2036;51.578;7.108;2022-10-10T03:06:50;100694.09;;;6.48;100.00
4044;BME280;2036;51.578;7.108;2022-10-10T03:09:16;100693.09;;;6.51;100.00
4044;BME280;2036;51.578;7.108;2022-10-10T03:11:42;100688.00;;;6.49;100.00
4044;BME280;2036;51.578;7.108;2022-10-10T03:14:08;100688.63;;;6.53;100.00
4044;BME280;2036;51.578;7.108;2022-10-10T03:16:34;100683.81;;;6.61;100.00
4044;BME280;2036;51.578;7.108;2022-10-10T03:18:59;100684.19;;;6.69;100.00
4044;BME280;2036;51.578;7.108;2022-10-10T03:21:25;100685.78;;;6.71;100.00
4044;BME280;2036;51.578;7.108;2022-10-10T03:23:51;100684.03;;;6.72;100.00
4044;BME280;2036;51.578;7.108;2022-10-10T03:26:17;100681.34;;;6.73;100.00
4044;BME280;2036;51.578;7.108;2022-10-10T03:28:42;100679.38;;;6.77;100.00
4044;BME280;2036;51.578;7.108;2022-10-10T03:31:09;100678.63;;;6.75;100.00
4044;BME280;2036;51.578;7.108;2022-10-10T03:33:35;100680.97;;;6.79;99.16
4044;BME280;2036;51.578;7.108;2022-10-10T03:36:01;100674.06;;;6.78;97.88
4044;BME280;2036;51.578;7.108;2022-10-10T03:38:26;100672.31;;;6.79;100.00
4044;BME280;2036;51.578;7.108;2022-10-10T03:40:52;100669.06;;;6.75;100.00
4044;BME280;2036;51.578;7.108;2022-10-10T03:43:18;100667.25;;;6.76;99.98
4044;BME280;2036;51.578;7.108;2022-10-10T03:45:44;100671.66;;;6.75;100.00
4044;BME280;2036;51.578;7.108;2022-10-10T03:48:12;100665.50;;;6.76;99.42
4044;BME280;2036;51.578;7.108;2022-10-10T03:50:38;100666.63;;;6.72;100.00
4044;BME280;2036;51.578;7.108;2022-10-10T03:53:04;100663.09;;;6.73;99.76
4044;BME280;2036;51.578;7.108;2022-10-10T03:55:30;100657.94;;;6.72;100.00
4044;BME280;2036;51.578;7.108;2022-10-10T03:57:56;100671.94;;;6.71;100.00
4044;BME280;2036;51.578;7.108;2022-10-10T04:00:22;100659.63;;;6.73;100.00
4044;BME280;2036;51.578;7.108;2022-10-10T04:02:48;100661.97;;;6.77;100.00
4044;BME280;2036;51.578;7.108;2022-10-10T04:05:14;100660.84;;;6.81;100.00
4044;BME280;2036;51.578;7.108;2022-10-10T04:07:40;100659.94;;;6.82;100.00
4044;BME280;2036;51.578;7.108;2022-10-10T04:10:08;100663.28;;;6.84;100.00
4044;BME280;2036;51.578;7.108;2022-10-10T04:12:34;100667.66;;;6.84;100.00
4044;BME280;2036;51.578;7.108;2022-10-10T04:15:01;100654.72;;;6.82;100.00
4044;BME280;2036;51.578;7.108;2022-10-10T04:17:27;100659.72;;;6.85;98.87
4044;BME280;2036;51.578;7.108;2022-10-10T04:19:52;100662.25;;;6.87;98.05
4044;BME280;2036;51.578;7.108;2022-10-10T04:22:18;100644.94;;;6.86;96.72
4044;BME280;2036;51.578;7.108;2022-10-10T04:24:44;100655.34;;;6.86;95.32
4044;BME280;2036;51.578;7.108;2022-10-10T04:27:10;100651.72;;;6.88;96.31
4044;BME280;2036;51.578;7.108;2022-10-10T04:29:36;100658.81;;;6.86;98.54
4044;BME280;2036;51.578;7.108;2022-10-10T04:32:02;100649.13;;;6.88;97.42
4044;BME280;2036;51.578;7.108;2022-10-10T04:34:28;100656.09;;;6.88;96.35
4044;BME280;2036;51.578;7.108;2022-10-10T04:36:54;100646.50;;;6.88;97.71
4044;BME280;2036;51.578;7.108;2022-10-10T04:39:20;100643.16;;;6.86;100.00
4044;BME280;2036;51.578;7.108;2022-10-10T04:41:46;100641.22;;;6.90;97.83
4044;BME280;2036;51.578;7.108;2022-10-10T04:44:16;100643.84;;;6.90;96.73
4044;BME280;2036;51.578;7.108;2022-10-10T04:46:43;100640.44;;;6.88;100.00
4044;BME280;2036;51.578;7.108;2022-10-10T04:49:09;100641.47;;;6.85;100.00
4044;BME280;2036;51.578;7.108;2022-10-10T04:51:34;100640.38;;;6.89;99.34
4044;BME280;2036;51.578;7.108;2022-10-10T04:54:00;100640.72;;;6.83;100.00
4044;BME280;2036;51.578;7.108;2022-10-10T04:56:26;100645.09;;;6.83;100.00
4044;BME280;2036;51.578;7.108;2022-10-10T04:58:52;100649.41;;;6.84;100.00
4044;BME280;2036;51.578;7.108;2022-10-10T05:01:18;100651.91;;;6.85;100.00
4044;BME280;2036;51.578;7.108;2022-10-10T05:03:43;100648.38;;;6.86;98.84
4044;BME280;2036;51.578;7.108;2022-10-10T05:06:09;100650.31;;;6.83;100.00
4044;BME280;2036;51.578;7.108;2022-10-10T05:08:35;100641.41;;;6.87;98.83
4044;BME280;2036;51.578;7.108;2022-10-10T05:11:01;100642.03;;;6.90;98.61
4044;BME280;2036;51.578;7.108;2022-10-10T05:13:26;100641.88;;;6.94;100.00
4044;BME280;2036;51.578;7.108;2022-10-10T05:15:52;100644.56;;;6.92;100.00
4044;BME280;2036;51.578;7.108;2022-10-10T05:18:21;100647.09;;;6.94;100.00
4044;BME280;2036;51.578;7.108;2022-10-10T05:20:47;100640.00;;;6.96;99.13
4044;BME280;2036;51.578;7.108;2022-10-10T05:23:14;100644.38;;;6.95;100.00
4044;BME280;2036;51.578;7.108;2022-10-10T05:25:44;100644.47;;;6.94;98.69
4044;BME280;2036;51.578;7.108;2022-10-10T05:28:12;100640.19;;;6.93;100.00
4044;BME280;2036;51.578;7.108;2022-10-10T05:30:37;100637.66;;;6.91;100.00
4044;BME280;2036;51.578;7.108;2022-10-10T05:33:03;100642.88;;;6.91;100.00
4044;BME280;2036;51.578;7.108;2022-10-10T05:35:29;100646.97;;;6.95;100.00
4044;BME280;2036;51.578;7.108;2022-10-10T05:37:55;100641.97;;;6.92;100.00
4044;BME280;2036;51.578;7.108;2022-10-10T05:40:21;100643.56;;;6.95;100.00
4044;BME280;2036;51.578;7.108;2022-10-10T05:42:47;100644.47;;;6.94;100.00
4044;BME280;2036;51.578;7.108;2022-10-10T05:45:13;100641.69;;;6.97;100.00
4044;BME280;2036;51.578;7.108;2022-10-10T05:47:39;100641.47;;;7.00;100.00
4044;BME280;2036;51.578;7.108;2022-10-10T05:50:06;100640.56;;;7.01;100.00
4044;BME280;2036;51.578;7.108;2022-10-10T05:52:32;100643.16;;;7.01;100.00
4044;BME280;2036;51.578;7.108;2022-10-10T05:54:59;100641.31;;;7.03;100.00
4044;BME280;2036;51.578;7.108;2022-10-10T05:57:25;100648.09;;;7.05;100.00
4044;BME280;2036;51.578;7.108;2022-10-10T05:59:51;100637.31;;;7.11;100.00
4044;BME280;2036;51.578;7.108;2022-10-10T06:02:16;100638.78;;;7.15;100.00
4044;BME280;2036;51.578;7.108;2022-10-10T06:04:42;100646.22;;;7.21;100.00
4044;BME280;2036;51.578;7.108;2022-10-10T06:07:08;100640.72;;;7.26;100.00
4044;BME280;2036;51.578;7.108;2022-10-10T06:09:34;100635.47;;;7.40;100.00
4044;BME280;2036;51.578;7.108;2022-10-10T06:12:00;100640.34;;;7.46;100.00
4044;BME280;2036;51.578;7.108;2022-10-10T06:14:25;100634.53;;;7.55;100.00
4044;BME280;2036;51.578;7.108;2022-10-10T06:16:51;100636.66;;;7.63;100.00
4044;BME280;2036;51.578;7.108;2022-10-10T06:19:17;100632.63;;;7.71;100.00
4044;BME280;2036;51.578;7.108;2022-10-10T06:21:43;100637.38;;;7.79;100.00
4044;BME280;2036;51.578;7.108;2022-10-10T06:24:08;100638.16;;;7.93;100.00
4044;BME280;2036;51.578;7.108;2022-10-10T06:26:35;100648.75;;;8.04;100.00
4044;BME280;2036;51.578;7.108;2022-10-10T06:29:01;100655.78;;;8.16;100.00
4044;BME280;2036;51.578;7.108;2022-10-10T06:31:27;100645.59;;;8.26;100.00
4044;BME280;2036;51.578;7.108;2022-10-10T06:33:52;100661.41;;;8.37;100.00
4044;BME280;2036;51.578;7.108;2022-10-10T06:36:18;100651.06;;;8.48;100.00
4044;BME280;2036;51.578;7.108;2022-10-10T06:38:44;100662.28;;;8.63;100.00
4044;BME280;2036;51.578;7.108;2022-10-10T06:41:11;100661.34;;;8.76;100.00
4044;BME280;2036;51.578;7.108;2022-10-10T06:43:37;100663.06;;;8.90;100.00
4044;BME280;2036;51.578;7.108;2022-10-10T06:46:03;100656.75;;;9.05;100.00
4044;BME280;2036;51.578;7.108;2022-10-10T06:48:29;100661.78;;;9.21;100.00
4044;BME280;2036;51.578;7.108;2022-10-10T06:51:10;100659.84;;;9.35;100.00
4044;BME280;2036;51.578;7.108;2022-10-10T06:53:37;100663.50;;;9.58;100.00
4044;BME280;2036;51.578;7.108;2022-10-10T06:56:03;100658.63;;;9.77;100.00
4044;BME280;2036;51.578;7.108;2022-10-10T06:58:31;100655.84;;;9.91;100.00
4044;BME280;2036;51.578;7.108;2022-10-10T07:01:02;100656.00;;;10.01;100.00
4044;BME280;2036;51.578;7.108;2022-10-10T07:03:29;100668.50;;;10.21;100.00
4044;BME280;2036;51.578;7.108;2022-10-10T07:06:00;100665.16;;;10.43;100.00
4044;BME280;2036;51.578;7.108;2022-10-10T07:08:27;100657.09;;;10.57;100.00
4044;BME280;2036;51.578;7.108;2022-10-10T07:10:53;100661.78;;;10.75;100.00
4044;BME280;2036;51.578;7.108;2022-10-10T07:13:19;100663.22;;;10.90;100.00
4044;BME280;2036;51.578;7.108;2022-10-10T07:15:46;100656.56;;;11.09;100.00
4044;BME280;2036;51.578;7.108;2022-10-10T07:18:12;100658.59;;;11.27;100.00
4044;BME280;2036;51.578;7.108;2022-10-10T07:20:38;100662.03;;;11.50;100.00
4044;BME280;2036;51.578;7.108;2022-10-10T07:23:04;100655.59;;;11.65;100.00
4044;BME280;2036;51.578;7.108;2022-10-10T07:25:30;100653.91;;;11.86;100.00
4044;BME280;2036;51.578;7.108;2022-10-10T07:27:56;100657.19;;;11.99;100.00
4044;BME280;2036;51.578;7.108;2022-10-10T07:30:24;100658.91;;;12.21;100.00
4044;BME280;2036;51.578;7.108;2022-10-10T07:32:52;100669.34;;;12.43;100.00
4044;BME280;2036;51.578;7.108;2022-10-10T07:35:19;100657.03;;;12.64;100.00
4044;BME280;2036;51.578;7.108;2022-10-10T07:37:46;100659.25;;;12.89;100.00
4044;BME280;2036;51.578;7.108;2022-10-10T07:40:12;100660.69;;;13.14;100.00
4044;BME280;2036;51.578;7.108;2022-10-10T07:42:38;100663.00;;;13.47;100.00
4044;BME280;2036;51.578;7.108;2022-10-10T07:45:05;100669.41;;;13.94;100.00
4044;BME280;2036;51.578;7.108;2022-10-10T07:47:31;100669.44;;;14.32;100.00
4044;BME280;2036;51.578;7.108;2022-10-10T07:49:57;100664.56;;;14.76;100.00
4044;BME280;2036;51.578;7.108;2022-10-10T07:52:22;100665.88;;;15.08;100.00
4044;BME280;2036;51.578;7.108;2022-10-10T07:54:48;100668.81;;;15.42;100.00
4044;BME280;2036;51.578;7.108;2022-10-10T07:57:14;100662.59;;;15.88;100.00
4044;BME280;2036;51.578;7.108;2022-10-10T07:59:40;100672.31;;;16.15;100.00
4044;BME280;2036;51.578;7.108;2022-10-10T08:02:08;100661.56;;;16.52;100.00
4044;BME280;2036;51.578;7.108;2022-10-10T08:04:34;100665.34;;;16.92;100.00
4044;BME280;2036;51.578;7.108;2022-10-10T08:07:00;100672.66;;;17.24;100.00
4044;BME280;2036;51.578;7.108;2022-10-10T08:09:26;100680.84;;;17.39;100.00
4044;BME280;2036;51.578;7.108;2022-10-10T08:11:51;100672.56;;;17.67;100.00
4044;BME280;2036;51.578;7.108;2022-10-10T08:14:17;100672.66;;;17.92;100.00
4044;BME280;2036;51.578;7.108;2022-10-10T08:16:43;100666.22;;;18.18;100.00
4044;BME280;2036;51.578;7.108;2022-10-10T08:19:09;100675.75;;;18.53;100.00
4044;BME280;2036;51.578;7.108;2022-10-10T08:21:34;100678.72;;;18.82;100.00
4044;BME280;2036;51.578;7.108;2022-10-10T08:24:01;100680.19;;;19.17;100.00
4044;BME280;2036;51.578;7.108;2022-10-10T08:26:27;100673.09;;;19.48;100.00
4044;BME280;2036;51.578;7.108;2022-10-10T08:28:53;100676.81;;;19.78;100.00
4044;BME280;2036;51.578;7.108;2022-10-10T08:31:20;100675.06;;;20.24;100.00
4044;BME280;2036;51.578;7.108;2022-10-10T08:33:48;100671.38;;;20.48;100.00
4044;BME280;2036;51.578;7.108;2022-10-10T08:36:18;100669.66;;;20.92;100.00
4044;BME280;2036;51.578;7.108;2022-10-10T08:38:45;100670.06;;;21.18;100.00
4044;BME280;2036;51.578;7.108;2022-10-10T08:44:58;100669.00;;;22.07;100.00
4044;BME280;2036;51.578;7.108;2022-10-10T08:47:45;100669.38;;;22.46;100.00
4044;BME280;2036;51.578;7.108;2022-10-10T08:50:32;100671.84;;;22.96;100.00
4044;BME280;2036;51.578;7.108;2022-10-10T08:53:09;100673.41;;;23.40;100.00
4044;BME280;2036;51.578;7.108;2022-10-10T08:55:40;100677.28;;;23.71;100.00
4044;BME280;2036;51.578;7.108;2022-10-10T08:58:39;100673.81;;;23.84;97.13
4044;BME280;2036;51.578;7.108;2022-10-10T09:01:20;100675.38;;;24.06;94.34
4044;BME280;2036;51.578;7.108;2022-10-10T09:04:00;100665.50;;;24.20;99.58
4044;BME280;2036;51.578;7.108;2022-10-10T09:07:06;100678.00;;;24.00;97.52
4044;BME280;2036;51.578;7.108;2022-10-10T09:15:24;100678.38;;;23.90;97.94
4044;BME280;2036;51.578;7.108;2022-10-10T09:24:02;100678.78;;;24.80;94.10
4044;BME280;2036;51.578;7.108;2022-10-10T09:26:41;100676.28;;;25.11;91.92
4044;BME280;2036;51.578;7.108;2022-10-10T09:31:45;100692.16;;;25.46;87.70
4044;BME280;2036;51.578;7.108;2022-10-10T09:34:49;100684.84;;;25.66;82.81
4044;BME280;2036;51.578;7.108;2022-10-10T09:37:31;100674.28;;;26.15;85.49
4044;BME280;2036;51.578;7.108;2022-10-10T09:42:43;100690.06;;;26.68;85.47
4044;BME280;2036;51.578;7.108;2022-10-10T09:45:27;100685.53;;;26.93;83.78
4044;BME280;2036;51.578;7.108;2022-10-10T09:47:55;100696.69;;;26.96;80.25
4044;BME280;2036;51.578;7.108;2022-10-10T09:50:22;100686.47;;;26.80;69.85
4044;BME280;2036;51.578;7.108;2022-10-10T09:52:49;100697.78;;;26.89;71.19
4044;BME280;2036;51.578;7.108;2022-10-10T09:57:46;100693.47;;;26.57;68.11
4044;BME280;2036;51.578;7.108;2022-10-10T10:05:29;100695.00;;;25.57;73.30
4044;BME280;2036;51.578;7.108;2022-10-10T10:07:55;100704.34;;;25.35;71.55
4044;BME280;2036;51.578;7.108;2022-10-10T10:10:26;100703.97;;;25.12;77.63
4044;BME280;2036;51.578;7.108;2022-10-10T10:12:55;100698.81;;;24.84;75.05
4044;BME280;2036;51.578;7.108;2022-10-10T10:15:27;100699.03;;;24.96;78.38
4044;BME280;2036;51.578;7.108;2022-10-10T10:20:43;100700.59;;;24.25;78.31
4044;BME280;2036;51.578;7.108;2022-10-10T10:23:30;100696.56;;;23.95;79.64
4044;BME280;2036;51.578;7.108;2022-10-10T10:26:08;100702.75;;;23.54;81.47
4044;BME280;2036;51.578;7.108;2022-10-10T10:28:40;100699.22;;;23.47;84.15
4044;BME280;2036;51.578;7.108;2022-10-10T10:31:43;100701.72;;;24.03;89.14
4044;BME280;2036;51.578;7.108;2022-10-10T10:44:11;100704.00;;;25.83;76.07
4044;BME280;2036;51.578;7.108;2022-10-10T11:05:00;100712.03;;;26.96;61.80
4044;BME280;2036;51.578;7.108;2022-10-10T11:07:57;100709.66;;;27.06;64.47
4044;BME280;2036;51.578;7.108;2022-10-10T11:18:41;100705.63;;;26.66;62.59
4044;BME280;2036;51.578;7.108;2022-10-10T11:21:20;100707.41;;;26.03;64.06
4044;BME280;2036;51.578;7.108;2022-10-10T11:24:01;100711.72;;;26.17;67.25
4044;BME280;2036;51.578;7.108;2022-10-10T11:26:34;100696.28;;;25.99;65.58
4044;BME280;2036;51.578;7.108;2022-10-10T11:29:12;100703.94;;;25.25;62.53
4044;BME280;2036;51.578;7.108;2022-10-10T11:32:03;100710.13;;;24.73;64.08
4044;BME280;2036;51.578;7.108;2022-10-10T11:34:34;100715.00;;;24.17;65.76
4044;BME280;2036;51.578;7.108;2022-10-10T11:37:13;100711.94;;;24.20;69.47
4044;BME280;2036;51.578;7.108;2022-10-10T11:39:53;100712.63;;;23.88;70.46
4044;BME280;2036;51.578;7.108;2022-10-10T11:42:49;100714.38;;;23.68;72.65
4044;BME280;2036;51.578;7.108;2022-10-10T11:45:32;100706.59;;;23.79;74.45
4044;BME280;2036;51.578;7.108;2022-10-10T11:50:55;100717.69;;;23.76;76.01
4044;BME280;2036;51.578;7.108;2022-10-10T11:53:37;100704.97;;;23.44;76.67
4044;BME280;2036;51.578;7.108;2022-10-10T11:56:36;100709.94;;;23.20;78.63
4044;BME280;2036;51.578;7.108;2022-10-10T11:59:33;100721.81;;;23.10;78.45
4044;BME280;2036;51.578;7.108;2022-10-10T12:02:18;100709.50;;;23.16;78.95
4044;BME280;2036;51.578;7.108;2022-10-10T12:04:46;100715.41;;;23.05;79.35
4044;BME280;2036;51.578;7.108;2022-10-10T12:10:20;100711.94;;;22.62;82.68
4044;BME280;2036;51.578;7.108;2022-10-10T12:12:49;100717.28;;;22.62;82.32
4044;BME280;2036;51.578;7.108;2022-10-10T12:15:34;100715.75;;;22.74;82.28
4044;BME280;2036;51.578;7.108;2022-10-10T12:18:01;100722.44;;;22.64;85.26
4044;BME280;2036;51.578;7.108;2022-10-10T12:23:26;100710.09;;;22.84;85.17
4044;BME280;2036;51.578;7.108;2022-10-10T12:25:53;100718.53;;;22.45;86.23
4044;BME280;2036;51.578;7.108;2022-10-10T12:28:36;100711.16;;;22.68;85.35
4044;BME280;2036;51.578;7.108;2022-10-10T12:34:04;100705.41;;;22.29;87.02
4044;BME280;2036;51.578;7.108;2022-10-10T12:44:24;100721.22;;;22.66;90.05
4044;BME280;2036;51.578;7.108;2022-10-10T12:49:51;100717.19;;;22.98;90.92
4044;BME280;2036;51.578;7.108;2022-10-10T12:52:33;100706.06;;;23.56;89.90
4044;BME280;2036;51.578;7.108;2022-10-10T12:57:46;100697.63;;;23.59;85.00
4044;BME280;2036;51.578;7.108;2022-10-10T13:00:15;100696.97;;;23.51;84.44
4044;BME280;2036;51.578;7.108;2022-10-10T13:02:47;100702.63;;;23.35;85.41
4044;BME280;2036;51.578;7.108;2022-10-10T13:05:19;100707.78;;;23.08;88.96
4044;BME280;2036;51.578;7.108;2022-10-10T13:07:51;100715.31;;;23.20;89.90
4044;BME280;2036;51.578;7.108;2022-10-10T13:10:25;100706.91;;;23.57;90.96
4044;BME280;2036;51.578;7.108;2022-10-10T13:13:17;100712.72;;;24.14;90.04
4044;BME280;2036;51.578;7.108;2022-10-10T13:15:52;100713.22;;;24.44;87.64
4044;BME280;2036;51.578;7.108;2022-10-10T13:18:41;100703.97;;;24.73;83.43
4044;BME280;2036;51.578;7.108;2022-10-10T13:21:14;100717.41;;;25.12;86.65
4044;BME280;2036;51.578;7.108;2022-10-10T13:23:47;100715.94;;;25.29;81.12
4044;BME280;2036;51.578;7.108;2022-10-10T13:26:22;100717.19;;;25.97;86.70
4044;BME280;2036;51.578;7.108;2022-10-10T13:28:53;100714.50;;;25.97;83.59
4044;BME280;2036;51.578;7.108;2022-10-10T13:31:27;100719.44;;;26.76;82.44
4044;BME280;2036;51.578;7.108;2022-10-10T13:34:05;100726.97;;;27.41;82.10
4044;BME280;2036;51.578;7.108;2022-10-10T13:36:32;100726.44;;;27.69;73.69
4044;BME280;2036;51.578;7.108;2022-10-10T13:38:59;100727.63;;;28.09;79.78
4044;BME280;2036;51.578;7.108;2022-10-10T13:41:26;100738.66;;;28.37;68.69
4044;BME280;2036;51.578;7.108;2022-10-10T13:43:53;100728.06;;;28.36;65.76
4044;BME280;2036;51.578;7.108;2022-10-10T13:46:30;100728.19;;;28.29;67.43
4044;BME280;2036;51.578;7.108;2022-10-10T13:48:57;100726.00;;;28.38;65.10
4044;BME280;2036;51.578;7.108;2022-10-10T13:51:44;100731.97;;;27.92;59.46
4044;BME280;2036;51.578;7.108;2022-10-10T13:54:44;100733.63;;;27.39;59.49
4044;BME280;2036;51.578;7.108;2022-10-10T13:57:22;100724.84;;;27.00;60.22
4044;BME280;2036;51.578;7.108;2022-10-10T14:00:06;100728.13;;;26.02;61.80
4044;BME280;2036;51.578;7.108;2022-10-10T14:02:40;100732.91;;;25.10;63.99
4044;BME280;2036;51.578;7.108;2022-10-10T14:05:30;100741.03;;;24.23;67.76
4044;BME280;2036;51.578;7.108;2022-10-10T14:07:57;100752.94;;;23.67;70.87
4044;BME280;2036;51.578;7.108;2022-10-10T14:10:28;100763.53;;;23.47;71.12
4044;BME280;2036;51.578;7.108;2022-10-10T14:12:59;100762.03;;;23.17;74.60
4044;BME280;2036;51.578;7.108;2022-10-10T14:17:55;100762.50;;;22.78;78.72
4044;BME280;2036;51.578;7.108;2022-10-10T14:20:21;100763.25;;;22.66;80.54
4044;BME280;2036;51.578;7.108;2022-10-10T14:22:47;100765.78;;;22.59;82.07
4044;BME280;2036;51.578;7.108;2022-10-10T14:25:13;100771.63;;;22.63;83.88
4044;BME280;2036;51.578;7.108;2022-10-10T14:27:39;100774.47;;;22.82;84.34
4044;BME280;2036;51.578;7.108;2022-10-10T14:30:05;100779.59;;;22.98;83.80
4044;BME280;2036;51.578;7.108;2022-10-10T14:32:31;100777.31;;;23.23;83.47
4044;BME280;2036;51.578;7.108;2022-10-10T14:34:57;100789.97;;;23.57;83.00
4044;BME280;2036;51.578;7.108;2022-10-10T14:37:26;100795.31;;;23.91;78.79
4044;BME280;2036;51.578;7.108;2022-10-10T14:39:53;100797.31;;;23.76;76.05
4044;BME280;2036;51.578;7.108;2022-10-10T14:42:20;100794.50;;;23.56;73.12
4044;BME280;2036;51.578;7.108;2022-10-10T14:44:47;100791.88;;;23.35;72.40
4044;BME280;2036;51.578;7.108;2022-10-10T14:47:23;100798.50;;;22.97;74.18
4044;BME280;2036;51.578;7.108;2022-10-10T14:49:49;100810.38;;;22.67;76.11
4044;BME280;2036;51.578;7.108;2022-10-10T14:52:17;100826.34;;;22.45;74.80
4044;BME280;2036;51.578;7.108;2022-10-10T14:54:46;100834.97;;;22.12;78.90
4044;BME280;2036;51.578;7.108;2022-10-10T14:57:12;100830.22;;;21.93;81.37
4044;BME280;2036;51.578;7.108;2022-10-10T14:59:38;100835.13;;;21.81;78.03
4044;BME280;2036;51.578;7.108;2022-10-10T15:02:04;100832.19;;;21.61;82.29
4044;BME280;2036;51.578;7.108;2022-10-10T15:04:30;100829.09;;;21.35;85.78
4044;BME280;2036;51.578;7.108;2022-10-10T15:06:56;100829.53;;;21.24;86.28
4044;BME280;2036;51.578;7.108;2022-10-10T15:09:22;100835.03;;;21.00;90.04
4044;BME280;2036;51.578;7.108;2022-10-10T15:11:47;100841.81;;;20.80;91.97
4044;BME280;2036;51.578;7.108;2022-10-10T15:14:13;100846.09;;;20.66;91.13
4044;BME280;2036;51.578;7.108;2022-10-10T15:16:39;100843.81;;;20.55;92.89
4044;BME280;2036;51.578;7.108;2022-10-10T15:19:05;100855.56;;;20.38;92.45
4044;BME280;2036;51.578;7.108;2022-10-10T15:21:31;100864.78;;;20.19;93.36
4044;BME280;2036;51.578;7.108;2022-10-10T15:23:56;100871.16;;;20.02;95.56
4044;BME280;2036;51.578;7.108;2022-10-10T15:26:23;100873.34;;;19.91;99.87
4044;BME280;2036;51.578;7.108;2022-10-10T15:28:49;100880.03;;;19.87;95.58
4044;BME280;2036;51.578;7.108;2022-10-10T15:31:15;100874.88;;;19.77;94.70
4044;BME280;2036;51.578;7.108;2022-10-10T15:33:40;100876.56;;;19.70;94.00
4044;BME280;2036;51.578;7.108;2022-10-10T15:36:07;100877.25;;;19.64;95.03
4044;BME280;2036;51.578;7.108;2022-10-10T15:38:35;100875.41;;;19.56;96.32
4044;BME280;2036;51.578;7.108;2022-10-10T15:41:07;100877.25;;;19.48;93.16